sensor_id;sensor_type;location;lat;lon;timestamp;temperature;humidity
15044;DHT22;7619;48.562;8.910;2022-12-29T00:01:15;8.30;1.00
15044;DHT22;7619;48.562;8.910;2022-12-29T00:03:45;8.30;1.00
15044;DHT22;7619;48.562;8.910;2022-12-29T00:06:14;8.30;1.00
15044;DHT22;7619;48.562;8.910;2022-12-29T00:08:43;8.10;1.00
15044;DHT22;7619;48.562;8.910;2022-12-29T00:11:13;8.20;1.00
15044;DHT22;7619;48.562;8.910;2022-12-29T00:13:42;8.10;1.00
15044;DHT22;7619;48.562;8.910;2022-12-29T00:16:29;8.00;1.00
15044;DHT22;7619;48.562;8.910;2022-12-29T00:18:58;7.80;1.00
15044;DHT22;7619;48.562;8.910;2022-12-29T00:21:27;7.80;1.00
15044;DHT22;7619;48.562;8.910;2022-12-29T00:24:15;7.90;1.00
15044;DHT22;7619;48.562;8.910;2022-12-29T00:27:11;7.80;1.00
15044;DHT22;7619;48.562;8.910;2022-12-29T00:29:58;7.80;1.00
15044;DHT22;7619;48.562;8.910;2022-12-29T00:32:45;7.90;1.00
15044;DHT22;7619;48.562;8.910;2022-12-29T00:35:35;7.90;1.00
15044;DHT22;7619;48.562;8.910;2022-12-29T00:38:05;7.90;1.00
15044;DHT22;7619;48.562;8.910;2022-12-29T00:40:53;7.90;1.00
15044;DHT22;7619;48.562;8.910;2022-12-29T00:43:40;8.00;1.00
15044;DHT22;7619;48.562;8.910;2022-12-29T00:46:27;8.00;1.00
15044;DHT22;7619;48.562;8.910;2022-12-29T00:48:55;8.10;1.00
15044;DHT22;7619;48.562;8.910;2022-12-29T00:51:56;8.20;1.00
15044;DHT22;7619;48.562;8.910;2022-12-29T00:54:26;8.40;1.00
15044;DHT22;7619;48.562;8.910;2022-12-29T00:56:56;8.60;1.00
15044;DHT22;7619;48.562;8.910;2022-12-29T00:59:24;8.70;1.00
15044;DHT22;7619;48.562;8.910;2022-12-29T01:01:54;8.90;1.00
15044;DHT22;7619;48.562;8.910;2022-12-29T01:04:25;9.00;1.00
15044;DHT22;7619;48.562;8.910;2022-12-29T01:06:54;8.90;1.00
15044;DHT22;7619;48.562;8.910;2022-12-29T01:09:23;8.90;1.00
15044;DHT22;7619;48.562;8.910;2022-12-29T01:12:10;8.90;1.00
15044;DHT22;7619;48.562;8.910;2022-12-29T01:14:39;8.80;1.00
15044;DHT22;7619;48.562;8.910;2022-12-29T01:17:08;8.90;1.00
15044;DHT22;7619;48.562;8.910;2022-12-29T01:19:37;8.90;1.00
15044;DHT22;7619;48.562;8.910;2022-12-29T01:22:05;8.90;1.00
15044;DHT22;7619;48.562;8.910;2022-12-29T01:24:34;8.80;99.90
15044;DHT22;7619;48.562;8.910;2022-12-29T01:27:03;8.80;99.90
15044;DHT22;7619;48.562;8.910;2022-12-29T01:29:32;8.80;99.90
15044;DHT22;7619;48.562;8.910;2022-12-29T01:32:00;8.70;99.90
15044;DHT22;7619;48.562;8.910;2022-12-29T01:34:29;8.80;99.90
15044;DHT22;7619;48.562;8.910;2022-12-29T01:36:58;8.80;99.90
15044;DHT22;7619;48.562;8.910;2022-12-29T01:39:26;8.80;99.90
15044;DHT22;7619;48.562;8.910;2022-12-29T01:41:55;8.80;99.90
15044;DHT22;7619;48.562;8.910;2022-12-29T01:44:47;8.80;99.90
15044;DHT22;7619;48.562;8.910;2022-12-29T01:47:21;8.90;99.90
15044;DHT22;7619;48.562;8.910;2022-12-29T01:49:50;9.10;99.90
15044;DHT22;7619;48.562;8.910;2022-12-29T01:52:21;9.10;99.90
15044;DHT22;7619;48.562;8.910;2022-12-29T01:54:53;9.10;99.90
15044;DHT22;7619;48.562;8.910;2022-12-29T01:57:24;9.10;99.90
15044;DHT22;7619;48.562;8.910;2022-12-29T01:59:56;9.10;99.90
15044;DHT22;7619;48.562;8.910;2022-12-29T02:02:26;9.10;99.90
15044;DHT22;7619;48.562;8.910;2022-12-29T02:04:56;9.00;99.90
15044;DHT22;7619;48.562;8.910;2022-12-29T02:07:27;9.00;99.90
15044;DHT22;7619;48.562;8.910;2022-12-29T02:09:56;9.00;99.90
15044;DHT22;7619;48.562;8.910;2022-12-29T02:12:25;8.90;99.90
15044;DHT22;7619;48.562;8.910;2022-12-29T02:14:57;9.10;99.90
15044;DHT22;7619;48.562;8.910;2022-12-29T02:17:32;9.10;99.90
15044;DHT22;7619;48.562;8.910;2022-12-29T02:23:57;9.10;99.90
15044;DHT22;7619;48.562;8.910;2022-12-29T02:29:58;9.20;99.90
15044;DHT22;7619;48.562;8.910;2022-12-29T02:32:30;9.20;99.90
15044;DHT22;7619;48.562;8.910;2022-12-29T02:37:42;9.10;99.90
15044;DHT22;7619;48.562;8.910;2022-12-29T02:40:17;9.20;99.90
15044;DHT22;7619;48.562;8.910;2022-12-29T02:42:49;9.10;99.90
15044;DHT22;7619;48.562;8.910;2022-12-29T02:45:22;9.10;99.90
15044;DHT22;7619;48.562;8.910;2022-12-29T02:47:56;9.00;99.90
15044;DHT22;7619;48.562;8.910;2022-12-29T02:50:27;8.90;99.90
15044;DHT22;7619;48.562;8.910;2022-12-29T02:52:59;9.00;99.90
15044;DHT22;7619;48.562;8.910;2022-12-29T02:55:29;9.00;99.90
15044;DHT22;7619;48.562;8.910;2022-12-29T03:01:03;9.10;99.90
15044;DHT22;7619;48.562;8.910;2022-12-29T03:03:40;9.10;99.90
15044;DHT22;7619;48.562;8.910;2022-12-29T03:06:19;9.10;99.90
15044;DHT22;7619;48.562;8.910;2022-12-29T03:08:52;9.10;99.90
15044;DHT22;7619;48.562;8.910;2022-12-29T03:11:20;9.30;99.90
15044;DHT22;7619;48.562;8.910;2022-12-29T03:14:12;9.50;99.90
15044;DHT22;7619;48.562;8.910;2022-12-29T03:17:00;9.50;99.90
15044;DHT22;7619;48.562;8.910;2022-12-29T03:19:32;9.40;99.90
15044;DHT22;7619;48.562;8.910;2022-12-29T03:22:04;9.50;99.90
15044;DHT22;7619;48.562;8.910;2022-12-29T03:24:55;9.90;99.90
15044;DHT22;7619;48.562;8.910;2022-12-29T03:27:25;10.10;99.90
15044;DHT22;7619;48.562;8.910;2022-12-29T03:29:58;10.20;99.90
15044;DHT22;7619;48.562;8.910;2022-12-29T03:32:47;10.30;99.90
15044;DHT22;7619;48.562;8.910;2022-12-29T03:35:18;10.40;1.00
15044;DHT22;7619;48.562;8.910;2022-12-29T03:37:51;10.40;99.90
15044;DHT22;7619;48.562;8.910;2022-12-29T03:40:21;10.30;99.90
15044;DHT22;7619;48.562;8.910;2022-12-29T03:42:53;10.30;99.90
15044;DHT22;7619;48.562;8.910;2022-12-29T03:45:23;10.30;99.90
15044;DHT22;7619;48.562;8.910;2022-12-29T03:47:53;10.30;99.90
15044;DHT22;7619;48.562;8.910;2022-12-29T03:50:21;10.20;99.90
15044;DHT22;7619;48.562;8.910;2022-12-29T03:52:50;10.10;99.90
15044;DHT22;7619;48.562;8.910;2022-12-29T03:55:19;10.20;99.90
15044;DHT22;7619;48.562;8.910;2022-12-29T03:57:47;10.30;99.90
15044;DHT22;7619;48.562;8.910;2022-12-29T04:00:16;10.20;99.90
15044;DHT22;7619;48.562;8.910;2022-12-29T04:02:45;10.20;99.90
15044;DHT22;7619;48.562;8.910;2022-12-29T04:05:14;10.30;99.90
15044;DHT22;7619;48.562;8.910;2022-12-29T04:07:43;10.40;99.90
15044;DHT22;7619;48.562;8.910;2022-12-29T04:10:12;10.40;99.90
15044;DHT22;7619;48.562;8.910;2022-12-29T04:12:40;10.40;99.90
15044;DHT22;7619;48.562;8.910;2022-12-29T04:15:10;10.60;99.90
15044;DHT22;7619;48.562;8.910;2022-12-29T04:17:39;10.50;99.90
15044;DHT22;7619;48.562;8.910;2022-12-29T04:20:10;10.50;99.90
15044;DHT22;7619;48.562;8.910;2022-12-29T04:23:01;10.40;99.90
15044;DHT22;7619;48.562;8.910;2022-12-29T04:25:31;10.40;99.90
15044;DHT22;7619;48.562;8.910;2022-12-29T04:28:00;10.40;99.90
15044;DHT22;7619;48.562;8.910;2022-12-29T04:30:29;10.40;99.90
15044;DHT22;7619;48.562;8.910;2022-12-29T04:32:57;10.30;99.90
15044;DHT22;7619;48.562;8.910;2022-12-29T04:35:26;10.40;99.90
15044;DHT22;7619;48.562;8.910;2022-12-29T04:37:55;10.30;99.90
15044;DHT22;7619;48.562;8.910;2022-12-29T04:40:23;10.30;99.90
15044;DHT22;7619;48.562;8.910;2022-12-29T04:42:52;10.20;99.90
15044;DHT22;7619;48.562;8.910;2022-12-29T04:45:21;10.20;99.90
15044;DHT22;7619;48.562;8.910;2022-12-29T04:47:50;10.30;99.90
15044;DHT22;7619;48.562;8.910;2022-12-29T04:50:19;10.20;99.90
15044;DHT22;7619;48.562;8.910;2022-12-29T04:52:47;10.10;99.90
15044;DHT22;7619;48.562;8.910;2022-12-29T04:55:16;10.00;99.90
15044;DHT22;7619;48.562;8.910;2022-12-29T04:57:45;9.80;99.90
15044;DHT22;7619;48.562;8.910;2022-12-29T05:00:15;9.70;99.90
15044;DHT22;7619;48.562;8.910;2022-12-29T05:02:44;9.70;99.90
15044;DHT22;7619;48.562;8.910;2022-12-29T05:05:13;9.60;99.90
15044;DHT22;7619;48.562;8.910;2022-12-29T05:07:41;9.40;99.90
15044;DHT22;7619;48.562;8.910;2022-12-29T05:10:11;9.40;99.90
15044;DHT22;7619;48.562;8.910;2022-12-29T05:12:40;9.30;99.90
15044;DHT22;7619;48.562;8.910;2022-12-29T05:15:10;9.40;99.90
15044;DHT22;7619;48.562;8.910;2022-12-29T05:17:39;9.40;99.90
15044;DHT22;7619;48.562;8.910;2022-12-29T05:20:10;9.40;99.90
15044;DHT22;7619;48.562;8.910;2022-12-29T05:22:38;9.50;99.90
15044;DHT22;7619;48.562;8.910;2022-12-29T05:25:08;9.60;99.90
15044;DHT22;7619;48.562;8.910;2022-12-29T05:27:38;9.50;99.90
15044;DHT22;7619;48.562;8.910;2022-12-29T05:30:09;9.30;99.90
15044;DHT22;7619;48.562;8.910;2022-12-29T05:32:38;9.20;99.90
15044;DHT22;7619;48.562;8.910;2022-12-29T05:40:24;9.30;99.90
15044;DHT22;7619;48.562;8.910;2022-12-29T05:42:53;9.50;99.90
15044;DHT22;7619;48.562;8.910;2022-12-29T05:45:22;9.80;99.90
15044;DHT22;7619;48.562;8.910;2022-12-29T05:47:51;10.10;99.90
15044;DHT22;7619;48.562;8.910;2022-12-29T05:50:20;10.20;99.90
15044;DHT22;7619;48.562;8.910;2022-12-29T05:52:48;10.20;99.90
15044;DHT22;7619;48.562;8.910;2022-12-29T05:55:18;10.10;99.90
15044;DHT22;7619;48.562;8.910;2022-12-29T05:57:47;10.10;99.90
15044;DHT22;7619;48.562;8.910;2022-12-29T06:00:17;9.90;99.90
15044;DHT22;7619;48.562;8.910;2022-12-29T06:02:45;9.60;99.90
15044;DHT22;7619;48.562;8.910;2022-12-29T06:05:14;9.30;99.90
15044;DHT22;7619;48.562;8.910;2022-12-29T06:07:43;9.10;99.90
15044;DHT22;7619;48.562;8.910;2022-12-29T06:10:13;9.00;99.90
15044;DHT22;7619;48.562;8.910;2022-12-29T06:12:41;8.80;99.90
15044;DHT22;7619;48.562;8.910;2022-12-29T06:15:11;8.80;99.90
15044;DHT22;7619;48.562;8.910;2022-12-29T06:17:40;8.60;99.90
15044;DHT22;7619;48.562;8.910;2022-12-29T06:20:10;8.60;99.90
15044;DHT22;7619;48.562;8.910;2022-12-29T06:22:39;8.50;99.90
15044;DHT22;7619;48.562;8.910;2022-12-29T06:25:09;8.60;99.90
15044;DHT22;7619;48.562;8.910;2022-12-29T06:27:37;8.60;99.90
15044;DHT22;7619;48.562;8.910;2022-12-29T06:30:09;8.90;99.90
15044;DHT22;7619;48.562;8.910;2022-12-29T06:32:38;8.90;99.90
15044;DHT22;7619;48.562;8.910;2022-12-29T06:35:08;9.00;99.90
15044;DHT22;7619;48.562;8.910;2022-12-29T06:37:37;9.10;99.90
15044;DHT22;7619;48.562;8.910;2022-12-29T06:40:07;9.20;99.90
15044;DHT22;7619;48.562;8.910;2022-12-29T06:42:36;9.30;99.90
15044;DHT22;7619;48.562;8.910;2022-12-29T06:45:07;9.40;99.90
15044;DHT22;7619;48.562;8.910;2022-12-29T06:47:36;9.50;99.90
15044;DHT22;7619;48.562;8.910;2022-12-29T06:50:06;9.60;99.90
15044;DHT22;7619;48.562;8.910;2022-12-29T06:52:35;9.60;99.90
15044;DHT22;7619;48.562;8.910;2022-12-29T06:55:05;9.60;99.90
15044;DHT22;7619;48.562;8.910;2022-12-29T06:57:34;9.50;99.90
15044;DHT22;7619;48.562;8.910;2022-12-29T07:00:04;9.40;99.90
15044;DHT22;7619;48.562;8.910;2022-12-29T07:02:33;9.40;99.90
15044;DHT22;7619;48.562;8.910;2022-12-29T07:05:02;9.40;99.90
15044;DHT22;7619;48.562;8.910;2022-12-29T07:07:31;9.40;99.90
15044;DHT22;7619;48.562;8.910;2022-12-29T07:10:00;9.40;99.90
15044;DHT22;7619;48.562;8.910;2022-12-29T07:12:28;9.40;99.90
15044;DHT22;7619;48.562;8.910;2022-12-29T07:14:57;9.40;99.90
15044;DHT22;7619;48.562;8.910;2022-12-29T07:17:25;9.40;99.90
15044;DHT22;7619;48.562;8.910;2022-12-29T07:19:54;9.40;99.90
15044;DHT22;7619;48.562;8.910;2022-12-29T07:22:23;9.30;99.90
15044;DHT22;7619;48.562;8.910;2022-12-29T07:24:52;9.30;99.90
15044;DHT22;7619;48.562;8.910;2022-12-29T07:27:20;9.30;99.90
15044;DHT22;7619;48.562;8.910;2022-12-29T07:29:49;9.30;99.90
15044;DHT22;7619;48.562;8.910;2022-12-29T07:32:18;9.30;99.90
15044;DHT22;7619;48.562;8.910;2022-12-29T07:34:46;9.30;99.90
15044;DHT22;7619;48.562;8.910;2022-12-29T07:37:16;9.20;99.90
15044;DHT22;7619;48.562;8.910;2022-12-29T07:39:45;9.30;99.90
15044;DHT22;7619;48.562;8.910;2022-12-29T07:42:14;9.20;99.90
15044;DHT22;7619;48.562;8.910;2022-12-29T07:44:43;9.20;99.90
15044;DHT22;7619;48.562;8.910;2022-12-29T07:47:12;9.20;99.90
15044;DHT22;7619;48.562;8.910;2022-12-29T07:49:40;9.30;99.90
15044;DHT22;7619;48.562;8.910;2022-12-29T07:52:09;9.30;99.90
15044;DHT22;7619;48.562;8.910;2022-12-29T07:54:38;9.20;99.90
15044;DHT22;7619;48.562;8.910;2022-12-29T07:57:07;9.10;99.90
15044;DHT22;7619;48.562;8.910;2022-12-29T07:59:35;9.00;1.00
15044;DHT22;7619;48.562;8.910;2022-12-29T08:02:04;9.00;1.00
15044;DHT22;7619;48.562;8.910;2022-12-29T08:04:33;9.10;1.00
15044;DHT22;7619;48.562;8.910;2022-12-29T08:07:02;9.10;1.00
15044;DHT22;7619;48.562;8.910;2022-12-29T08:09:31;9.30;1.00
15044;DHT22;7619;48.562;8.910;2022-12-29T08:11:59;9.40;1.00
15044;DHT22;7619;48.562;8.910;2022-12-29T08:14:28;9.40;1.00
15044;DHT22;7619;48.562;8.910;2022-12-29T08:16:57;9.40;1.00
15044;DHT22;7619;48.562;8.910;2022-12-29T08:19:26;9.40;1.00
15044;DHT22;7619;48.562;8.910;2022-12-29T08:21:55;9.50;1.00
15044;DHT22;7619;48.562;8.910;2022-12-29T08:24:23;9.50;1.00
15044;DHT22;7619;48.562;8.910;2022-12-29T08:26:52;9.50;1.00
15044;DHT22;7619;48.562;8.910;2022-12-29T08:29:21;9.60;1.00
15044;DHT22;7619;48.562;8.910;2022-12-29T08:31:50;9.80;1.00
15044;DHT22;7619;48.562;8.910;2022-12-29T08:34:19;10.00;1.00
15044;DHT22;7619;48.562;8.910;2022-12-29T08:36:48;10.20;1.00
15044;DHT22;7619;48.562;8.910;2022-12-29T08:39:17;10.40;1.00
15044;DHT22;7619;48.562;8.910;2022-12-29T08:41:46;10.40;99.90
15044;DHT22;7619;48.562;8.910;2022-12-29T08:44:15;10.40;99.90
15044;DHT22;7619;48.562;8.910;2022-12-29T08:46:44;10.50;99.90
15044;DHT22;7619;48.562;8.910;2022-12-29T08:49:13;10.60;99.90
15044;DHT22;7619;48.562;8.910;2022-12-29T08:51:41;10.60;99.90
15044;DHT22;7619;48.562;8.910;2022-12-29T08:54:10;10.60;99.90
15044;DHT22;7619;48.562;8.910;2022-12-29T08:56:39;10.60;99.90
15044;DHT22;7619;48.562;8.910;2022-12-29T08:59:08;10.80;99.90
15044;DHT22;7619;48.562;8.910;2022-12-29T09:01:36;10.80;99.90
15044;DHT22;7619;48.562;8.910;2022-12-29T09:04:07;10.70;99.90
15044;DHT22;7619;48.562;8.910;2022-12-29T09:06:36;10.70;99.90
15044;DHT22;7619;48.562;8.910;2022-12-29T09:09:05;10.70;99.90
15044;DHT22;7619;48.562;8.910;2022-12-29T09:11:33;10.70;99.90
15044;DHT22;7619;48.562;8.910;2022-12-29T09:14:02;10.70;99.90
15044;DHT22;7619;48.562;8.910;2022-12-29T09:19:10;11.50;99.90
15044;DHT22;7619;48.562;8.910;2022-12-29T09:21:39;12.10;99.90
15044;DHT22;7619;48.562;8.910;2022-12-29T09:24:07;12.40;99.90
15044;DHT22;7619;48.562;8.910;2022-12-29T09:26:36;11.70;99.90
15044;DHT22;7619;48.562;8.910;2022-12-29T09:29:06;11.30;99.90
15044;DHT22;7619;48.562;8.910;2022-12-29T09:31:35;11.10;99.90
15044;DHT22;7619;48.562;8.910;2022-12-29T09:34:03;11.20;99.90
15044;DHT22;7619;48.562;8.910;2022-12-29T09:39:13;11.70;99.90
15044;DHT22;7619;48.562;8.910;2022-12-29T09:44:25;12.00;99.90
15044;DHT22;7619;48.562;8.910;2022-12-29T09:46:55;12.10;99.90
15044;DHT22;7619;48.562;8.910;2022-12-29T09:49:28;12.00;99.90
15044;DHT22;7619;48.562;8.910;2022-12-29T09:52:01;12.00;99.90
15044;DHT22;7619;48.562;8.910;2022-12-29T09:54:40;11.90;99.90
15044;DHT22;7619;48.562;8.910;2022-12-29T09:57:18;11.90;99.90
15044;DHT22;7619;48.562;8.910;2022-12-29T09:59:48;11.70;99.90
15044;DHT22;7619;48.562;8.910;2022-12-29T10:02:26;11.40;99.90
15044;DHT22;7619;48.562;8.910;2022-12-29T10:04:54;11.40;99.90
15044;DHT22;7619;48.562;8.910;2022-12-29T10:07:30;11.30;99.90
15044;DHT22;7619;48.562;8.910;2022-12-29T10:10:03;11.30;99.90
15044;DHT22;7619;48.562;8.910;2022-12-29T10:12:36;11.40;99.90
15044;DHT22;7619;48.562;8.910;2022-12-29T10:15:09;11.50;99.90
15044;DHT22;7619;48.562;8.910;2022-12-29T10:17:39;11.50;99.90
15044;DHT22;7619;48.562;8.910;2022-12-29T10:20:26;11.60;99.90
15044;DHT22;7619;48.562;8.910;2022-12-29T10:25:37;11.50;99.90
15044;DHT22;7619;48.562;8.910;2022-12-29T10:28:15;11.50;99.90
15044;DHT22;7619;48.562;8.910;2022-12-29T10:30:42;11.40;99.90
15044;DHT22;7619;48.562;8.910;2022-12-29T10:33:15;11.50;99.90
15044;DHT22;7619;48.562;8.910;2022-12-29T10:35:47;11.60;99.90
15044;DHT22;7619;48.562;8.910;2022-12-29T10:38:20;11.70;99.90
15044;DHT22;7619;48.562;8.910;2022-12-29T10:40:53;11.90;99.90
15044;DHT22;7619;48.562;8.910;2022-12-29T10:43:25;11.90;99.90
15044;DHT22;7619;48.562;8.910;2022-12-29T10:45:56;12.00;99.90
15044;DHT22;7619;48.562;8.910;2022-12-29T10:48:28;12.10;99.90
15044;DHT22;7619;48.562;8.910;2022-12-29T10:50:59;12.20;99.90
15044;DHT22;7619;48.562;8.910;2022-12-29T10:56:12;12.20;99.90
15044;DHT22;7619;48.562;8.910;2022-12-29T10:58:41;12.20;99.90
15044;DHT22;7619;48.562;8.910;2022-12-29T11:01:11;12.20;99.90
15044;DHT22;7619;48.562;8.910;2022-12-29T11:03:56;12.30;99.90
15044;DHT22;7619;48.562;8.910;2022-12-29T11:06:27;12.30;99.90
15044;DHT22;7619;48.562;8.910;2022-12-29T11:08:58;12.40;99.90
15044;DHT22;7619;48.562;8.910;2022-12-29T11:11:33;12.30;99.90
15044;DHT22;7619;48.562;8.910;2022-12-29T11:14:10;12.20;99.90
15044;DHT22;7619;48.562;8.910;2022-12-29T11:16:39;12.10;99.90
15044;DHT22;7619;48.562;8.910;2022-12-29T11:19:21;12.10;99.90
15044;DHT22;7619;48.562;8.910;2022-12-29T11:21:50;12.00;99.90
15044;DHT22;7619;48.562;8.910;2022-12-29T11:24:22;12.00;99.90
15044;DHT22;7619;48.562;8.910;2022-12-29T11:26:53;11.90;99.90
15044;DHT22;7619;48.562;8.910;2022-12-29T11:29:28;11.90;99.90
15044;DHT22;7619;48.562;8.910;2022-12-29T11:31:59;12.00;99.90
15044;DHT22;7619;48.562;8.910;2022-12-29T11:34:33;12.00;99.90
15044;DHT22;7619;48.562;8.910;2022-12-29T11:37:04;12.00;99.90
15044;DHT22;7619;48.562;8.910;2022-12-29T11:39:37;12.00;99.90
15044;DHT22;7619;48.562;8.910;2022-12-29T11:42:13;12.00;99.90
15044;DHT22;7619;48.562;8.910;2022-12-29T11:44:45;11.90;99.90
15044;DHT22;7619;48.562;8.910;2022-12-29T11:47:21;11.70;99.90
15044;DHT22;7619;48.562;8.910;2022-12-29T11:49:53;11.60;99.90
15044;DHT22;7619;48.562;8.910;2022-12-29T11:52:25;11.50;99.90
15044;DHT22;7619;48.562;8.910;2022-12-29T11:54:55;11.50;99.90
15044;DHT22;7619;48.562;8.910;2022-12-29T11:57:25;11.60;99.90
15044;DHT22;7619;48.562;8.910;2022-12-29T11:59:55;11.70;99.90
15044;DHT22;7619;48.562;8.910;2022-12-29T12:02:40;11.70;1.00
15044;DHT22;7619;48.562;8.910;2022-12-29T12:05:31;11.70;1.00
15044;DHT22;7619;48.562;8.910;2022-12-29T12:08:08;11.60;1.00
15044;DHT22;7619;48.562;8.910;2022-12-29T12:10:42;11.60;1.00
15044;DHT22;7619;48.562;8.910;2022-12-29T12:16:02;11.70;1.00
15044;DHT22;7619;48.562;8.910;2022-12-29T12:18:41;11.80;1.00
15044;DHT22;7619;48.562;8.910;2022-12-29T12:21:14;11.90;1.00
15044;DHT22;7619;48.562;8.910;2022-12-29T12:24:00;11.90;1.00
15044;DHT22;7619;48.562;8.910;2022-12-29T12:26:33;11.80;1.00
15044;DHT22;7619;48.562;8.910;2022-12-29T12:29:07;11.70;1.00
15044;DHT22;7619;48.562;8.910;2022-12-29T12:31:41;11.60;1.00
15044;DHT22;7619;48.562;8.910;2022-12-29T12:34:14;11.40;95.40
15044;DHT22;7619;48.562;8.910;2022-12-29T12:37:02;11.30;99.90
15044;DHT22;7619;48.562;8.910;2022-12-29T12:39:36;11.20;99.90
15044;DHT22;7619;48.562;8.910;2022-12-29T12:42:13;11.20;99.90
15044;DHT22;7619;48.562;8.910;2022-12-29T12:44:47;11.20;1.00
15044;DHT22;7619;48.562;8.910;2022-12-29T12:47:39;11.20;1.00
15044;DHT22;7619;48.562;8.910;2022-12-29T12:50:15;11.20;1.00
15044;DHT22;7619;48.562;8.910;2022-12-29T12:52:56;11.20;1.00
15044;DHT22;7619;48.562;8.910;2022-12-29T12:55:34;11.40;1.00
15044;DHT22;7619;48.562;8.910;2022-12-29T12:58:07;11.40;1.00
15044;DHT22;7619;48.562;8.910;2022-12-29T13:00:39;11.40;1.00
15044;DHT22;7619;48.562;8.910;2022-12-29T13:03:12;11.40;1.00
15044;DHT22;7619;48.562;8.910;2022-12-29T13:05:53;11.40;1.00
15044;DHT22;7619;48.562;8.910;2022-12-29T13:08:30;11.30;1.00
15044;DHT22;7619;48.562;8.910;2022-12-29T13:11:02;11.40;75.10
15044;DHT22;7619;48.562;8.910;2022-12-29T13:14:01;11.30;99.90
15044;DHT22;7619;48.562;8.910;2022-12-29T13:16:34;11.30;99.90
15044;DHT22;7619;48.562;8.910;2022-12-29T13:19:06;11.30;99.90
15044;DHT22;7619;48.562;8.910;2022-12-29T13:21:41;11.30;99.90
15044;DHT22;7619;48.562;8.910;2022-12-29T13:24:15;11.30;99.90
15044;DHT22;7619;48.562;8.910;2022-12-29T13:26:46;11.20;99.90
15044;DHT22;7619;48.562;8.910;2022-12-29T13:29:18;11.20;99.90
15044;DHT22;7619;48.562;8.910;2022-12-29T13:31:52;11.40;99.90
15044;DHT22;7619;48.562;8.910;2022-12-29T13:34:27;11.40;99.90
15044;DHT22;7619;48.562;8.910;2022-12-29T13:36:58;11.40;99.90
15044;DHT22;7619;48.562;8.910;2022-12-29T13:39:30;11.50;99.90
15044;DHT22;7619;48.562;8.910;2022-12-29T13:42:01;11.60;99.90
15044;DHT22;7619;48.562;8.910;2022-12-29T13:44:33;11.70;99.90
15044;DHT22;7619;48.562;8.910;2022-12-29T13:47:05;11.60;1.00
15044;DHT22;7619;48.562;8.910;2022-12-29T13:49:35;11.60;1.00
15044;DHT22;7619;48.562;8.910;2022-12-29T13:52:10;11.60;1.00
15044;DHT22;7619;48.562;8.910;2022-12-29T13:54:42;11.60;1.00
15044;DHT22;7619;48.562;8.910;2022-12-29T13:57:14;11.70;1.00
15044;DHT22;7619;48.562;8.910;2022-12-29T13:59:48;11.80;1.00
15044;DHT22;7619;48.562;8.910;2022-12-29T14:02:26;11.80;1.00
15044;DHT22;7619;48.562;8.910;2022-12-29T14:05:00;11.80;1.00
15044;DHT22;7619;48.562;8.910;2022-12-29T14:07:35;11.80;1.00
15044;DHT22;7619;48.562;8.910;2022-12-29T14:10:00;11.80;1.00
15044;DHT22;7619;48.562;8.910;2022-12-29T14:12:32;11.70;1.00
15044;DHT22;7619;48.562;8.910;2022-12-29T14:15:20;11.80;99.90
15044;DHT22;7619;48.562;8.910;2022-12-29T14:18:10;11.70;1.00
15044;DHT22;7619;48.562;8.910;2022-12-29T14:20:39;11.50;99.90
15044;DHT22;7619;48.562;8.910;2022-12-29T14:23:28;11.50;99.90
15044;DHT22;7619;48.562;8.910;2022-12-29T14:28:53;11.50;99.90
15044;DHT22;7619;48.562;8.910;2022-12-29T14:34:29;11.60;99.90
15044;DHT22;7619;48.562;8.910;2022-12-29T14:36:59;11.40;99.90
15044;DHT22;7619;48.562;8.910;2022-12-29T14:39:33;11.40;99.90
15044;DHT22;7619;48.562;8.910;2022-12-29T14:42:05;11.30;99.90
15044;DHT22;7619;48.562;8.910;2022-12-29T14:44:35;11.20;99.90
15044;DHT22;7619;48.562;8.910;2022-12-29T14:47:07;11.10;99.90
15044;DHT22;7619;48.562;8.910;2022-12-29T14:49:42;11.10;99.90
15044;DHT22;7619;48.562;8.910;2022-12-29T14:52:18;11.00;99.90
15044;DHT22;7619;48.562;8.910;2022-12-29T14:57:34;10.90;99.90
15044;DHT22;7619;48.562;8.910;2022-12-29T15:02:52;11.00;99.90
15044;DHT22;7619;48.562;8.910;2022-12-29T15:05:42;11.00;99.90
15044;DHT22;7619;48.562;8.910;2022-12-29T15:08:12;10.90;99.90
15044;DHT22;7619;48.562;8.910;2022-12-29T15:10:45;10.90;99.90
15044;DHT22;7619;48.562;8.910;2022-12-29T15:13:21;10.80;99.90
15044;DHT22;7619;48.562;8.910;2022-12-29T15:15:49;10.80;99.90
15044;DHT22;7619;48.562;8.910;2022-12-29T15:18:26;10.70;99.90
15044;DHT22;7619;48.562;8.910;2022-12-29T15:23:33;10.70;99.90
15044;DHT22;7619;48.562;8.910;2022-12-29T15:26:03;10.80;99.90
15044;DHT22;7619;48.562;8.910;2022-12-29T15:31:17;10.90;99.90
15044;DHT22;7619;48.562;8.910;2022-12-29T15:33:49;10.90;99.90
15044;DHT22;7619;48.562;8.910;2022-12-29T15:36:21;10.90;90.00
15044;DHT22;7619;48.562;8.910;2022-12-29T15:38:50;10.90;43.80
15044;DHT22;7619;48.562;8.910;2022-12-29T15:41:31;10.90;19.10
15044;DHT22;7619;48.562;8.910;2022-12-29T15:44:03;10.90;23.10
15044;DHT22;7619;48.562;8.910;2022-12-29T15:46:33;10.80;19.00
15044;DHT22;7619;48.562;8.910;2022-12-29T15:49:05;10.80;21.30
15044;DHT22;7619;48.562;8.910;2022-12-29T15:51:37;10.80;1.00
15044;DHT22;7619;48.562;8.910;2022-12-29T15:54:07;10.80;1.00
15044;DHT22;7619;48.562;8.910;2022-12-29T15:56:37;10.70;12.60
15044;DHT22;7619;48.562;8.910;2022-12-29T15:59:18;10.60;26.30
15044;DHT22;7619;48.562;8.910;2022-12-29T16:01:43;10.60;35.60
15044;DHT22;7619;48.562;8.910;2022-12-29T16:04:12;10.60;70.60
15044;DHT22;7619;48.562;8.910;2022-12-29T16:06:54;10.50;99.00
15044;DHT22;7619;48.562;8.910;2022-12-29T16:09:17;10.60;99.90
15044;DHT22;7619;48.562;8.910;2022-12-29T16:11:49;10.60;99.90
15044;DHT22;7619;48.562;8.910;2022-12-29T16:14:20;10.60;99.90
15044;DHT22;7619;48.562;8.910;2022-12-29T16:16:50;10.50;99.90
15044;DHT22;7619;48.562;8.910;2022-12-29T16:19:21;10.50;99.90
15044;DHT22;7619;48.562;8.910;2022-12-29T16:21:51;10.50;99.90
15044;DHT22;7619;48.562;8.910;2022-12-29T16:24:22;10.50;99.90
15044;DHT22;7619;48.562;8.910;2022-12-29T16:26:54;10.40;99.90
15044;DHT22;7619;48.562;8.910;2022-12-29T16:29:23;10.30;99.90
15044;DHT22;7619;48.562;8.910;2022-12-29T16:31:55;10.30;99.90
15044;DHT22;7619;48.562;8.910;2022-12-29T16:34:31;10.20;99.90
15044;DHT22;7619;48.562;8.910;2022-12-29T16:37:02;10.20;99.90
15044;DHT22;7619;48.562;8.910;2022-12-29T16:39:34;10.20;99.90
15044;DHT22;7619;48.562;8.910;2022-12-29T16:42:35;10.10;99.90
15044;DHT22;7619;48.562;8.910;2022-12-29T16:48:17;10.10;1.00
15044;DHT22;7619;48.562;8.910;2022-12-29T16:50:47;10.10;1.00
15044;DHT22;7619;48.562;8.910;2022-12-29T16:53:21;10.10;1.00
15044;DHT22;7619;48.562;8.910;2022-12-29T16:55:51;10.00;1.00
15044;DHT22;7619;48.562;8.910;2022-12-29T16:58:22;10.00;1.00
15044;DHT22;7619;48.562;8.910;2022-12-29T17:00:55;10.00;1.00
15044;DHT22;7619;48.562;8.910;2022-12-29T17:03:27;9.90;1.00
15044;DHT22;7619;48.562;8.910;2022-12-29T17:05:56;9.70;1.00
15044;DHT22;7619;48.562;8.910;2022-12-29T17:08:25;9.50;1.40
15044;DHT22;7619;48.562;8.910;2022-12-29T17:10:56;9.40;99.90
15044;DHT22;7619;48.562;8.910;2022-12-29T17:13:43;9.30;99.90
15044;DHT22;7619;48.562;8.910;2022-12-29T17:16:12;9.10;1.00
15044;DHT22;7619;48.562;8.910;2022-12-29T17:18:40;9.00;1.00
15044;DHT22;7619;48.562;8.910;2022-12-29T17:21:09;9.00;74.70
15044;DHT22;7619;48.562;8.910;2022-12-29T17:23:39;9.10;99.90